Time;durP1;ratioP1;P1;durP2;ratioP2;P2;SDS_P1;SDS_P2;PMS_P1;PMS_P2;Temp;Humidity;BMP_temperature;BMP_pressure;BME280_temperature;BME280_humidity;BME280_pressure;Samples;Min_cycle;Max_cycle;Signal;HPM_P1;HPM_P2
2023/11/06 00:00:36;;;;;;;13.75;4.50;;;8.70;99.90;;;;;;5014897;28;20061;-63
2023/11/06 00:03:03;;;;;;;14.32;4.10;;;8.70;99.90;;;;;;5014893;28;20050;-62
2023/11/06 00:05:30;;;;;;;9.10;3.60;;;8.70;99.90;;;;;;5012325;28;20484;-63
2023/11/06 00:07:58;;;;;;;13.20;3.92;;;8.70;99.90;;;;;;5014880;28;20049;-63
2023/11/06 00:10:25;;;;;;;15.52;3.85;;;8.70;99.90;;;;;;5014885;28;20092;-62
2023/11/06 00:12:52;;;;;;;14.48;4.50;;;8.60;99.90;;;;;;5012409;28;20034;-63
2023/11/06 00:15:20;;;;;;;12.95;3.83;;;8.60;99.90;;;;;;5015483;28;20034;-63
2023/11/06 00:17:47;;;;;;;10.18;3.75;;;8.60;99.90;;;;;;5015225;28;20073;-62
2023/11/06 00:20:16;;;;;;;11.45;5.10;;;8.60;99.90;;;;;;5014757;28;20042;-62
2023/11/06 00:22:43;;;;;;;11.20;3.47;;;8.60;99.90;;;;;;5014999;28;20475;-62
2023/11/06 00:25:10;;;;;;;12.15;3.53;;;8.60;99.90;;;;;;5014786;28;20050;-62
2023/11/06 00:27:38;;;;;;;13.85;4.35;;;8.60;99.90;;;;;;5014795;28;20069;-63
2023/11/06 00:30:05;;;;;;;11.63;4.20;;;8.60;99.90;;;;;;5015106;28;20050;-62
2023/11/06 00:32:32;;;;;;;12.98;3.72;;;8.60;99.90;;;;;;4997670;28;20088;-62
2023/11/06 00:34:59;;;;;;;11.25;4.18;;;8.60;99.90;;;;;;5014819;28;20045;-63
2023/11/06 00:37:26;;;;;;;14.52;3.90;;;8.60;99.90;;;;;;4997227;28;20050;-62
2023/11/06 00:39:52;;;;;;;15.52;3.92;;;8.60;99.90;;;;;;5014521;28;20053;-63
2023/11/06 00:42:19;;;;;;;11.50;3.97;;;8.50;99.90;;;;;;4997220;28;20046;-62
2023/11/06 00:44:46;;;;;;;12.98;3.88;;;8.50;99.90;;;;;;4981186;28;20422;-63
2023/11/06 00:47:13;;;;;;;12.35;3.70;;;8.60;99.90;;;;;;5014914;28;20124;-63
2023/11/06 00:49:40;;;;;;;15.82;3.85;;;8.60;99.90;;;;;;5014319;28;20078;-62
2023/11/06 00:52:07;;;;;;;17.05;4.30;;;8.60;99.90;;;;;;4996633;28;20128;-63
2023/11/06 00:54:34;;;;;;;10.63;3.63;;;8.60;99.90;;;;;;4997209;28;20133;-62
2023/11/06 00:57:01;;;;;;;15.30;3.85;;;8.50;99.90;;;;;;5014736;28;20049;-62
2023/11/06 00:59:28;;;;;;;10.93;3.60;;;8.50;99.90;;;;;;5014521;28;20042;-63
2023/11/06 01:01:55;;;;;;;12.77;3.60;;;8.50;99.90;;;;;;5014183;28;20397;-62
2023/11/06 01:04:22;;;;;;;20.10;3.67;;;8.50;99.90;;;;;;4996955;28;20045;-62
2023/11/06 01:06:49;;;;;;;15.05;4.00;;;8.60;99.90;;;;;;4996513;28;20054;-63
2023/11/06 01:09:16;;;;;;;13.13;3.60;;;8.50;99.90;;;;;;4996379;28;20038;-63
2023/11/06 01:11:43;;;;;;;16.17;3.92;;;8.50;99.90;;;;;;5014187;28;20046;-53
2023/11/06 01:14:10;;;;;;;15.90;3.40;;;8.50;99.90;;;;;;4980247;28;20044;-55
2023/11/06 01:16:37;;;;;;;14.60;3.35;;;8.50;99.90;;;;;;4996726;28;20045;-52
2023/11/06 01:19:04;;;;;;;19.00;4.00;;;8.50;99.90;;;;;;5014011;28;20037;-55
2023/11/06 01:21:31;;;;;;;16.50;4.30;;;8.50;99.90;;;;;;5013797;28;20042;-56
2023/11/06 01:23:59;;;;;;;17.95;4.18;;;8.50;99.90;;;;;;5014106;28;20129;-54
2023/11/06 01:26:26;;;;;;;15.48;3.33;;;8.50;99.90;;;;;;4996817;28;20110;-53
2023/11/06 01:28:53;;;;;;;11.05;3.35;;;8.50;99.90;;;;;;5013912;28;20050;-56
2023/11/06 01:31:20;;;;;;;13.30;3.33;;;8.50;99.90;;;;;;5013471;28;20485;-51
2023/11/06 01:33:47;;;;;;;15.13;3.38;;;8.50;99.90;;;;;;4996175;28;20042;-54
2023/11/06 01:36:14;;;;;;;13.15;3.47;;;8.50;99.90;;;;;;4996331;28;20057;-53
2023/11/06 01:38:41;;;;;;;15.63;3.13;;;8.50;99.90;;;;;;5013512;28;20092;-56
2023/11/06 01:41:08;;;;;;;11.63;3.00;;;8.50;99.90;;;;;;5013575;28;20149;-56
2023/11/06 01:43:35;;;;;;;13.02;2.90;;;8.50;99.90;;;;;;4995972;28;20076;-54
2023/11/06 01:46:02;;;;;;;15.68;3.97;;;8.50;99.90;;;;;;5013733;28;20053;-56
2023/11/06 01:48:29;;;;;;;15.15;3.50;;;8.50;99.90;;;;;;5013752;28;20042;-57
2023/11/06 01:50:56;;;;;;;13.32;3.17;;;8.50;99.90;;;;;;5013966;28;20228;-57
2023/11/06 01:53:23;;;;;;;14.43;2.92;;;8.50;99.90;;;;;;4996444;28;20038;-55
2023/11/06 01:55:50;;;;;;;17.13;3.20;;;8.50;99.90;;;;;;4996278;28;20041;-57
2023/11/06 01:58:17;;;;;;;18.67;3.33;;;8.50;99.90;;;;;;4995544;28;20034;-55
2023/11/06 02:00:45;;;;;;;11.73;2.80;;;8.50;99.90;;;;;;5013574;28;20092;-55
2023/11/06 02:03:13;;;;;;;11.57;2.70;;;8.50;99.90;;;;;;4995799;28;20093;-53
2023/11/06 02:05:40;;;;;;;16.30;2.92;;;8.50;99.90;;;;;;5013587;28;20483;-53
2023/11/06 02:08:07;;;;;;;13.82;3.45;;;8.40;99.90;;;;;;5013417;28;20104;-55
2023/11/06 02:10:34;;;;;;;15.43;3.33;;;8.40;99.90;;;;;;5013814;28;20153;-57
2023/11/06 02:13:00;;;;;;;13.73;3.10;;;8.40;99.90;;;;;;5013597;28;20046;-63
2023/11/06 02:15:27;;;;;;;17.27;3.25;;;8.40;99.90;;;;;;5013366;28;20042;-64
2023/11/06 02:17:55;;;;;;;13.55;2.75;;;8.40;99.90;;;;;;4979183;28;20157;-63
2023/11/06 02:20:22;;;;;;;17.25;3.30;;;8.40;99.90;;;;;;5013268;28;20050;-63
2023/11/06 02:22:49;;;;;;;12.27;2.90;;;8.40;99.90;;;;;;4995872;28;20046;-63
2023/11/06 02:25:16;;;;;;;15.98;3.22;;;8.40;99.90;;;;;;5013749;28;20115;-63
2023/11/06 02:27:42;;;;;;;13.00;3.10;;;8.40;99.90;;;;;;5013332;28;20375;-63
2023/11/06 02:30:09;;;;;;;16.23;3.25;;;8.40;99.90;;;;;;5013772;28;20046;-63
2023/11/06 02:32:36;;;;;;;11.35;2.67;;;8.40;99.90;;;;;;4995584;28;20038;-64
2023/11/06 02:35:07;;;;;;;15.27;2.65;;;8.40;99.90;;;;;;5013316;28;20042;-64
2023/11/06 02:37:34;;;;;;;13.98;2.70;;;8.40;99.90;;;;;;4995715;28;20045;-63
2023/11/06 02:40:02;;;;;;;13.27;3.20;;;8.40;99.90;;;;;;5013376;28;20096;-63
2023/11/06 02:42:29;;;;;;;17.27;3.28;;;8.40;99.90;;;;;;4997712;28;20049;-63
2023/11/06 02:44:56;;;;;;;14.18;2.65;;;8.30;99.90;;;;;;5016855;28;20042;-64
2023/11/06 02:47:22;;;;;;;11.55;2.63;;;8.40;99.90;;;;;;4999137;28;20078;-64
2023/11/06 02:49:49;;;;;;;13.40;2.85;;;8.40;99.90;;;;;;5017356;28;20113;-64
2023/11/06 02:52:18;;;;;;;15.38;2.65;;;8.40;99.90;;;;;;5016707;28;20116;-58
2023/11/06 02:54:45;;;;;;;15.20;2.97;;;8.40;99.90;;;;;;5017204;28;20041;-56
2023/11/06 02:57:12;;;;;;;14.20;3.22;;;8.40;99.90;;;;;;5016631;28;20073;-57
2023/11/06 02:59:39;;;;;;;13.35;2.92;;;8.40;99.90;;;;;;5016420;28;20042;-56
2023/11/06 03:02:06;;;;;;;15.13;3.17;;;8.40;99.90;;;;;;4999161;28;20428;-54
2023/11/06 03:04:33;;;;;;;19.70;2.67;;;8.40;99.90;;;;;;4998654;28;20042;-63
2023/11/06 03:07:00;;;;;;;16.55;3.15;;;8.40;99.90;;;;;;4999321;28;20041;-64
2023/11/06 03:09:27;;;;;;;17.33;2.65;;;8.40;99.90;;;;;;5016640;28;20422;-64
2023/11/06 03:11:54;;;;;;;13.38;2.60;;;8.40;99.90;;;;;;4998932;28;20050;-64
2023/11/06 03:14:21;;;;;;;19.25;3.85;;;8.40;99.90;;;;;;5016554;28;20049;-64
2023/11/06 03:16:48;;;;;;;16.80;2.80;;;8.40;99.90;;;;;;5016326;28;20041;-64
2023/11/06 03:19:15;;;;;;;13.23;2.90;;;8.40;99.90;;;;;;4998864;28;20140;-64
2023/11/06 03:21:42;;;;;;;17.40;4.43;;;8.30;99.90;;;;;;4998689;28;20115;-63
2023/11/06 03:24:09;;;;;;;13.75;3.13;;;8.30;99.90;;;;;;5016352;28;20475;-63
2023/11/06 03:26:35;;;;;;;12.88;2.58;;;8.30;99.90;;;;;;5016265;28;20077;-64
2023/11/06 03:29:02;;;;;;;15.82;2.90;;;8.30;99.90;;;;;;4998315;28;20045;-58
2023/11/06 03:31:30;;;;;;;14.38;2.92;;;8.30;99.90;;;;;;4998452;28;20069;-55
2023/11/06 03:33:57;;;;;;;14.88;3.00;;;8.30;99.90;;;;;;4998082;28;20053;-57
2023/11/06 03:36:24;;;;;;;15.30;3.13;;;8.30;99.90;;;;;;5016171;28;20506;-55
2023/11/06 03:38:51;;;;;;;16.38;2.88;;;8.30;99.90;;;;;;5016028;28;20049;-58
2023/11/06 03:41:18;;;;;;;11.90;3.28;;;8.40;99.90;;;;;;4994699;28;20062;-58
2023/11/06 03:43:48;;;;;;;14.43;2.78;;;8.40;99.90;;;;;;4996226;28;20045;-54
2023/11/06 03:46:16;;;;;;;12.68;2.38;;;8.40;99.90;;;;;;4996278;28;20061;-55
2023/11/06 03:48:42;;;;;;;12.95;2.90;;;8.40;99.90;;;;;;4994768;28;20057;-57
2023/11/06 03:51:09;;;;;;;13.75;2.47;;;8.40;99.90;;;;;;4995286;28;20046;-56
2023/11/06 03:53:36;;;;;;;13.18;2.90;;;8.40;99.90;;;;;;4994990;28;20039;-54
2023/11/06 03:56:03;;;;;;;12.27;2.35;;;8.50;99.90;;;;;;4996429;28;20097;-57
2023/11/06 03:58:30;;;;;;;13.45;2.63;;;8.50;99.90;;;;;;4996295;28;20097;-57
2023/11/06 04:00:57;;;;;;;12.45;2.47;;;8.50;99.90;;;;;;4997532;28;20035;-57
2023/11/06 04:03:23;;;;;;;15.18;2.63;;;8.50;99.90;;;;;;4997627;28;20042;-64
2023/11/06 04:05:50;;;;;;;12.13;2.45;;;8.50;99.90;;;;;;4996109;28;20038;-63
2023/11/06 04:08:17;;;;;;;14.38;2.50;;;8.50;99.90;;;;;;4995674;28;20042;-63
2023/11/06 04:10:44;;;;;;;14.32;2.40;;;8.50;99.90;;;;;;4995764;28;20042;-64
2023/11/06 04:13:10;;;;;;;13.88;2.63;;;8.60;99.90;;;;;;4995509;28;20046;-57
2023/11/06 04:15:37;;;;;;;17.00;2.65;;;8.50;99.90;;;;;;4995804;28;20039;-58
2023/11/06 04:18:04;;;;;;;12.38;2.90;;;8.50;99.90;;;;;;4995832;28;20046;-57
2023/11/06 04:20:31;;;;;;;17.40;3.63;;;8.50;99.90;;;;;;4995630;28;20046;-56
2023/11/06 04:22:58;;;;;;;16.10;2.83;;;8.50;99.90;;;;;;4995654;28;20038;-56
2023/11/06 04:25:25;;;;;;;12.43;2.38;;;8.50;99.90;;;;;;4995614;28;20045;-55
2023/11/06 04:27:51;;;;;;;15.52;3.67;;;8.50;99.90;;;;;;4994327;28;20526;-58
2023/11/06 04:30:18;;;;;;;11.43;2.53;;;8.50;99.90;;;;;;4995761;28;20506;-56
2023/11/06 04:32:45;;;;;;;9.02;1.80;;;8.50;99.90;;;;;;4995549;28;20038;-58
2023/11/06 04:35:12;;;;;;;13.43;3.42;;;8.50;99.90;;;;;;4995507;28;20093;-54
2023/11/06 04:37:40;;;;;;;13.02;2.28;;;8.60;99.90;;;;;;4995170;28;20101;-55
2023/11/06 04:40:11;;;;;;;10.77;2.00;;;8.50;99.90;;;;;;5002347;28;20451;-57
2023/11/06 04:42:38;;;;;;;11.70;2.40;;;8.50;99.90;;;;;;5014760;28;20038;-57
2023/11/06 04:45:05;;;;;;;17.95;2.10;;;8.50;99.90;;;;;;5014524;28;20050;-54
2023/11/06 04:47:31;;;;;;;11.88;2.53;;;8.50;99.90;;;;;;5014871;28;20053;-57
2023/11/06 04:49:58;;;;;;;12.73;2.80;;;8.50;99.90;;;;;;5014794;28;20394;-57
2023/11/06 04:52:25;;;;;;;13.27;2.70;;;8.50;99.90;;;;;;5014614;28;20098;-57
2023/11/06 04:54:52;;;;;;;13.13;2.25;;;8.50;99.90;;;;;;5014690;28;20049;-56
2023/11/06 04:57:19;;;;;;;8.05;2.53;;;8.50;99.90;;;;;;5014817;28;20042;-57
2023/11/06 04:59:46;;;;;;;8.38;1.80;;;8.50;99.90;;;;;;5014388;28;20041;-57
2023/11/06 05:02:12;;;;;;;10.10;1.83;;;8.50;99.90;;;;;;5014776;28;20046;-57
2023/11/06 05:04:39;;;;;;;13.60;2.03;;;8.50;99.90;;;;;;5013774;28;20058;-54
2023/11/06 05:07:06;;;;;;;10.48;2.50;;;8.50;99.90;;;;;;5013378;28;20049;-57
2023/11/06 05:09:33;;;;;;;10.95;2.30;;;8.50;99.90;;;;;;5014052;28;20053;-58
2023/11/06 05:12:00;;;;;;;7.47;2.03;;;8.50;99.90;;;;;;5014289;28;20071;-57
2023/11/06 05:14:27;;;;;;;8.20;2.38;;;8.40;99.90;;;;;;5014411;28;20069;-57
2023/11/06 05:16:53;;;;;;;12.45;2.42;;;8.40;99.90;;;;;;5014197;28;20125;-56
2023/11/06 05:19:21;;;;;;;13.25;2.30;;;8.40;99.90;;;;;;4996136;28;20049;-57
2023/11/06 05:21:47;;;;;;;10.60;2.00;;;8.40;99.90;;;;;;5014043;28;20046;-57
2023/11/06 05:24:14;;;;;;;11.82;2.30;;;8.30;99.90;;;;;;5014111;28;20483;-56
2023/11/06 05:26:41;;;;;;;11.20;2.17;;;8.30;99.90;;;;;;5013931;28;20050;-56
2023/11/06 05:29:08;;;;;;;11.15;2.42;;;8.40;99.90;;;;;;4996510;28;20044;-62
2023/11/06 05:31:34;;;;;;;8.45;2.03;;;8.30;99.90;;;;;;5013761;28;20050;-64
2023/11/06 05:34:01;;;;;;;9.90;1.88;;;8.30;99.90;;;;;;5013625;28;20049;-63
2023/11/06 05:36:29;;;;;;;13.50;2.20;;;8.30;99.90;;;;;;5014007;28;20033;-63
2023/11/06 05:38:56;;;;;;;8.15;1.60;;;8.30;99.90;;;;;;5028937;28;20061;-64
2023/11/06 05:41:25;;;;;;;8.77;1.65;;;8.30;99.90;;;;;;5033649;28;20470;-63
2023/11/06 05:43:52;;;;;;;7.50;1.70;;;8.20;99.90;;;;;;5033097;28;20043;-63
2023/11/06 05:46:19;;;;;;;9.55;2.05;;;8.10;99.90;;;;;;5033528;28;20069;-63
2023/11/06 05:48:46;;;;;;;10.25;2.17;;;8.10;99.90;;;;;;5033552;28;20099;-63
2023/11/06 05:51:13;;;;;;;7.25;1.35;;;8.10;99.90;;;;;;5033643;28;20045;-63
2023/11/06 05:53:40;;;;;;;9.38;2.10;;;8.10;99.90;;;;;;5033265;28;20041;-63
2023/11/06 05:56:07;;;;;;;7.80;1.80;;;8.10;99.90;;;;;;5033750;28;20475;-63
2023/11/06 05:58:34;;;;;;;9.77;2.05;;;8.00;99.90;;;;;;5033288;28;20099;-64
2023/11/06 06:01:01;;;;;;;8.13;1.90;;;8.00;99.90;;;;;;5016224;28;20049;-64
2023/11/06 06:03:28;;;;;;;7.03;1.70;;;8.00;99.90;;;;;;5033323;28;20099;-56
2023/11/06 06:05:56;;;;;;;5.97;1.75;;;7.90;99.90;;;;;;5033396;28;20046;-54
2023/11/06 06:08:23;;;;;;;10.68;1.88;;;7.90;99.90;;;;;;5033659;28;20513;-55
2023/11/06 06:10:49;;;;;;;8.00;1.75;;;7.80;99.90;;;;;;5016030;28;20041;-57
2023/11/06 06:13:18;;;;;;;7.03;1.80;;;7.80;99.90;;;;;;5033326;28;20045;-56
2023/11/06 06:15:45;;;;;;;5.97;2.00;;;7.80;99.90;;;;;;5033417;28;20455;-53
2023/11/06 06:18:11;;;;;;;7.65;1.88;;;7.70;99.90;;;;;;5035667;28;20555;-54
2023/11/06 06:20:38;;;;;;;9.57;1.92;;;7.70;99.90;;;;;;5037468;28;20565;-56
2023/11/06 06:23:05;;;;;;;7.80;1.83;;;7.70;99.90;;;;;;5037587;28;20037;-55
2023/11/06 06:25:32;;;;;;;8.20;1.70;;;7.60;99.90;;;;;;5039200;28;20068;-50
2023/11/06 06:27:59;;;;;;;6.18;1.60;;;7.60;99.90;;;;;;5037840;28;20348;-56
2023/11/06 06:30:26;;;;;;;9.98;2.50;;;7.60;99.90;;;;;;5037515;28;20088;-57
2023/11/06 06:32:52;;;;;;;6.00;1.73;;;7.60;99.90;;;;;;5037533;28;20056;-55
2023/11/06 06:35:19;;;;;;;10.43;2.20;;;7.50;99.90;;;;;;5036906;28;20034;-55
2023/11/06 06:37:46;;;;;;;11.57;2.10;;;7.50;99.90;;;;;;5036591;28;20041;-56
2023/11/06 06:40:13;;;;;;;9.73;2.22;;;7.50;99.90;;;;;;5036706;28;20144;-54
2023/11/06 06:42:40;;;;;;;11.20;2.55;;;7.40;99.90;;;;;;5036648;28;20045;-57
2023/11/06 06:45:07;;;;;;;9.70;2.35;;;7.40;99.90;;;;;;5037018;28;20053;-55
2023/11/06 06:47:34;;;;;;;6.75;2.10;;;7.40;99.90;;;;;;5036694;28;20103;-57
2023/11/06 06:50:01;;;;;;;8.43;1.98;;;7.40;99.90;;;;;;5036811;28;20111;-57
2023/11/06 06:52:28;;;;;;;12.13;2.28;;;7.40;99.90;;;;;;5036757;28;20045;-57
2023/11/06 06:54:54;;;;;;;8.85;1.70;;;7.40;99.90;;;;;;5036860;28;20124;-55
2023/11/06 06:57:21;;;;;;;5.60;1.60;;;7.40;99.90;;;;;;5036588;28;20033;-55
2023/11/06 06:59:48;;;;;;;5.50;1.98;;;7.30;99.90;;;;;;5036393;28;20056;-56
2023/11/06 07:02:15;;;;;;;7.35;1.85;;;7.30;99.90;;;;;;5036356;28;20046;-56
2023/11/06 07:04:42;;;;;;;7.35;1.80;;;7.30;99.90;;;;;;5036578;28;20042;-56
2023/11/06 07:07:09;;;;;;;9.00;1.90;;;7.30;99.90;;;;;;5036456;28;20406;-55
2023/11/06 07:09:36;;;;;;;5.65;2.08;;;7.30;99.90;;;;;;5036449;28;20069;-57
2023/11/06 07:12:03;;;;;;;6.40;1.92;;;7.30;99.90;;;;;;5036352;28;20427;-58
2023/11/06 07:14:31;;;;;;;7.20;2.00;;;7.30;99.90;;;;;;5036035;28;20048;-57
2023/11/06 07:17:03;;;;;;;9.40;1.90;;;7.30;99.90;;;;;;5036120;28;20088;-57
2023/11/06 07:19:33;;;;;;;11.55;1.80;;;7.30;99.90;;;;;;5036413;28;20386;-63
2023/11/06 07:22:01;;;;;;;8.82;2.10;;;7.20;99.90;;;;;;5035576;28;20407;-64
2023/11/06 07:24:28;;;;;;;7.60;1.92;;;7.20;99.90;;;;;;5036238;28;20385;-64
2023/11/06 07:26:55;;;;;;;7.88;1.77;;;7.20;99.90;;;;;;5036027;28;20116;-63
2023/11/06 07:29:23;;;;;;;9.93;1.67;;;7.20;99.90;;;;;;5034572;28;20052;-64
2023/11/06 07:31:50;;;;;;;8.70;1.45;;;7.20;99.90;;;;;;5035662;28;20049;-58
2023/11/06 07:34:17;;;;;;;6.13;1.73;;;7.20;99.90;;;;;;5035809;28;20045;-57
2023/11/06 07:36:48;;;;;;;10.65;1.67;;;7.20;99.90;;;;;;5036012;28;20501;-57
2023/11/06 07:39:15;;;;;;;7.47;1.60;;;7.20;99.90;;;;;;5035375;28;20056;-56
2023/11/06 07:41:42;;;;;;;7.15;1.42;;;7.20;99.90;;;;;;5035517;28;20050;-57
2023/11/06 07:44:09;;;;;;;6.20;1.70;;;7.30;99.90;;;;;;5035639;28;20037;-57
2023/11/06 07:46:36;;;;;;;8.20;1.67;;;7.30;99.90;;;;;;5035737;28;20134;-57
2023/11/06 07:49:03;;;;;;;8.38;1.48;;;7.30;99.90;;;;;;5035229;28;20053;-56
2023/11/06 07:51:30;;;;;;;7.85;1.88;;;7.40;99.90;;;;;;5018256;28;20509;-55
2023/11/06 07:53:57;;;;;;;4.60;2.05;;;7.40;99.90;;;;;;5035377;28;20497;-56
2023/11/06 07:56:23;;;;;;;8.43;1.58;;;7.40;99.90;;;;;;5035427;28;20079;-59
2023/11/06 07:58:50;;;;;;;8.15;1.40;;;7.50;99.90;;;;;;5035169;28;20044;-57
2023/11/06 08:01:17;;;;;;;6.43;1.52;;;7.50;99.90;;;;;;5035386;28;20045;-63
2023/11/06 08:03:44;;;;;;;9.18;1.45;;;7.60;99.90;;;;;;5034891;28;20445;-63
2023/11/06 08:06:12;;;;;;;6.05;1.40;;;7.70;99.90;;;;;;5035269;28;20049;-62
2023/11/06 08:08:40;;;;;;;6.45;1.60;;;7.70;99.90;;;;;;5023865;28;20125;-63
2023/11/06 08:11:07;;;;;;;8.95;2.05;;;7.80;99.90;;;;;;5015074;28;20221;-62
2023/11/06 08:13:34;;;;;;;11.23;1.80;;;7.80;99.90;;;;;;5015620;28;20034;-62
2023/11/06 08:16:03;;;;;;;9.20;2.00;;;7.90;99.90;;;;;;5014482;28;20034;-63
2023/11/06 08:18:31;;;;;;;9.63;1.65;;;7.90;99.90;;;;;;5014715;28;20080;-63
2023/11/06 08:21:00;;;;;;;9.68;1.63;;;8.00;99.90;;;;;;5014526;28;20042;-62
2023/11/06 08:23:27;;;;;;;9.10;1.77;;;8.00;99.90;;;;;;5012234;28;20093;-63
2023/11/06 08:25:54;;;;;;;7.43;1.40;;;8.00;99.90;;;;;;5014351;28;20044;-63
2023/11/06 08:28:21;;;;;;;12.40;1.70;;;8.10;99.90;;;;;;5014315;28;20041;-63
2023/11/06 08:30:48;;;;;;;8.50;1.80;;;8.10;99.90;;;;;;5013665;28;20045;-63
2023/11/06 08:33:15;;;;;;;7.68;1.80;;;8.20;99.90;;;;;;5013324;28;20124;-64
2023/11/06 08:35:43;;;;;;;7.57;1.63;;;8.20;99.90;;;;;;5014217;28;20058;-63
2023/11/06 08:38:10;;;;;;;7.35;1.88;;;8.30;99.90;;;;;;5013599;28;20034;-63
2023/11/06 08:40:37;;;;;;;6.22;1.65;;;8.30;99.90;;;;;;5014748;28;20436;-62
2023/11/06 08:43:04;;;;;;;11.32;2.33;;;8.30;99.90;;;;;;5014852;28;20038;-63
2023/11/06 08:45:30;;;;;;;10.98;1.70;;;8.40;99.90;;;;;;5015912;28;20052;-63
2023/11/06 08:47:57;;;;;;;10.30;1.80;;;8.40;99.90;;;;;;5016818;28;20463;-63
2023/11/06 08:50:24;;;;;;;8.27;1.80;;;8.50;99.90;;;;;;5015048;28;20049;-63
2023/11/06 08:52:51;;;;;;;7.68;1.65;;;8.50;99.90;;;;;;5014655;28;20088;-65
2023/11/06 08:55:18;;;;;;;10.40;1.90;;;8.60;99.90;;;;;;5014761;28;20038;-64
2023/11/06 08:57:45;;;;;;;7.47;1.75;;;8.70;99.90;;;;;;5014709;28;20077;-64
2023/11/06 09:00:14;;;;;;;9.00;1.90;;;8.70;99.90;;;;;;5014673;28;20038;-65
2023/11/06 09:02:42;;;;;;;11.38;1.70;;;8.80;99.90;;;;;;5012620;28;20491;-63
2023/11/06 09:05:09;;;;;;;5.43;1.42;;;8.80;99.90;;;;;;5014437;28;20046;-64
2023/11/06 09:07:36;;;;;;;9.77;1.80;;;8.90;99.90;;;;;;5014181;28;20050;-63
2023/11/06 09:10:02;;;;;;;8.73;1.65;;;8.90;99.90;;;;;;5014390;28;20046;-63
2023/11/06 09:12:29;;;;;;;8.75;1.90;;;8.90;99.90;;;;;;5013218;28;20411;-63
2023/11/06 09:14:57;;;;;;;11.85;2.20;;;9.00;99.90;;;;;;5013738;28;20060;-63
2023/11/06 09:17:24;;;;;;;11.10;1.80;;;9.00;99.90;;;;;;5014331;28;20092;-63
2023/11/06 09:19:51;;;;;;;10.38;2.08;;;9.10;99.90;;;;;;5014107;28;20048;-63
2023/11/06 09:22:19;;;;;;;13.18;2.40;;;9.10;99.90;;;;;;5014351;28;20042;-63
2023/11/06 09:24:46;;;;;;;11.80;1.95;;;9.20;99.90;;;;;;5013940;28;20046;-63
2023/11/06 09:27:13;;;;;;;8.50;2.05;;;9.20;99.90;;;;;;5013690;28;20125;-63
2023/11/06 09:29:40;;;;;;;7.82;1.95;;;9.30;99.90;;;;;;5013968;28;20046;-64
2023/11/06 09:32:07;;;;;;;9.60;2.20;;;9.30;99.90;;;;;;5011898;28;20088;-64
2023/11/06 09:34:37;;;;;;;9.75;1.80;;;9.40;99.90;;;;;;5011513;28;20065;-64
2023/11/06 09:37:04;;;;;;;10.05;2.25;;;9.40;99.90;;;;;;5013867;28;20038;-64
2023/11/06 09:39:31;;;;;;;11.73;1.92;;;9.50;99.90;;;;;;5010775;28;20092;-64
2023/11/06 09:41:58;;;;;;;9.15;1.95;;;9.60;99.90;;;;;;4994476;28;20042;-54
2023/11/06 09:44:25;;;;;;;7.82;1.60;;;9.60;99.90;;;;;;4993467;28;20129;-55
2023/11/06 09:46:52;;;;;;;9.63;2.00;;;9.70;99.90;;;;;;4994253;28;20042;-54
2023/11/06 09:49:22;;;;;;;8.20;2.60;;;9.70;99.90;;;;;;4994006;28;20069;-57
2023/11/06 09:51:49;;;;;;;10.15;2.38;;;9.80;99.90;;;;;;4993803;28;20100;-57
2023/11/06 09:54:15;;;;;;;10.02;1.92;;;9.90;99.90;;;;;;4994174;28;20054;-56
2023/11/06 09:56:42;;;;;;;9.18;1.60;;;9.90;99.90;;;;;;4993736;28;20113;-57
2023/11/06 09:59:09;;;;;;;12.88;1.95;;;9.90;99.90;;;;;;4993788;28;20471;-57
2023/11/06 10:01:36;;;;;;;14.38;2.20;;;10.00;99.90;;;;;;4993810;28;20067;-56
2023/11/06 10:04:04;;;;;;;10.95;1.75;;;10.10;99.90;;;;;;4994338;28;20475;-57
2023/11/06 10:06:31;;;;;;;8.30;1.75;;;10.00;99.90;;;;;;4994645;28;20057;-57
2023/11/06 10:08:58;;;;;;;9.93;2.20;;;10.10;99.90;;;;;;4993735;28;20499;-57
2023/11/06 10:11:25;;;;;;;8.52;1.90;;;10.20;99.90;;;;;;4992833;28;20046;-57
2023/11/06 10:13:52;;;;;;;9.90;1.92;;;10.20;99.90;;;;;;4994127;28;20049;-56
2023/11/06 10:16:24;;;;;;;7.70;1.73;;;10.30;99.90;;;;;;4994243;28;20046;-58
2023/11/06 10:18:51;;;;;;;10.70;2.55;;;10.30;99.90;;;;;;4993780;28;20047;-57
2023/11/06 10:21:18;;;;;;;10.43;1.90;;;10.30;99.90;;;;;;4993882;28;20093;-64
2023/11/06 10:23:44;;;;;;;10.85;1.98;;;10.40;99.90;;;;;;4992512;28;20050;-65
2023/11/06 10:26:12;;;;;;;13.82;2.30;;;10.40;99.90;;;;;;4994102;28;20141;-65
2023/11/06 10:28:39;;;;;;;8.63;2.00;;;10.40;99.90;;;;;;4992534;28;20506;-64
2023/11/06 10:31:07;;;;;;;8.65;1.60;;;10.50;99.90;;;;;;4994068;28;20065;-64
2023/11/06 10:33:34;;;;;;;8.30;2.10;;;10.50;99.90;;;;;;4994168;28;20051;-65
2023/11/06 10:36:01;;;;;;;12.77;2.00;;;10.60;99.90;;;;;;4993717;28;20043;-64
2023/11/06 10:38:29;;;;;;;6.03;1.48;;;10.60;99.90;;;;;;4993207;28;20133;-56
2023/11/06 10:40:56;;;;;;;12.18;2.22;;;10.60;99.90;;;;;;5004579;28;20122;-58
2023/11/06 10:43:23;;;;;;;9.52;1.83;;;10.60;99.90;;;;;;5013731;28;20038;-57
2023/11/06 10:45:50;;;;;;;11.05;1.90;;;10.70;99.90;;;;;;5013376;28;20113;-59
2023/11/06 10:48:17;;;;;;;9.73;2.08;;;10.70;99.90;;;;;;5013155;28;20053;-59
2023/11/06 10:50:44;;;;;;;10.85;2.42;;;10.70;99.90;;;;;;5013336;28;20487;-59
2023/11/06 10:53:11;;;;;;;8.77;2.13;;;10.70;99.90;;;;;;5012405;28;20062;-60
2023/11/06 10:55:38;;;;;;;12.70;2.22;;;10.80;99.90;;;;;;4994603;28;20130;-59
2023/11/06 10:58:05;;;;;;;11.75;1.80;;;10.80;99.90;;;;;;4993194;28;20038;-58
2023/11/06 11:00:31;;;;;;;12.00;2.65;;;10.80;99.90;;;;;;4991999;28;20503;-57
2023/11/06 11:02:59;;;;;;;9.88;2.50;;;10.90;99.90;;;;;;4993972;28;20559;-58
2023/11/06 11:05:28;;;;;;;9.80;2.00;;;10.90;99.90;;;;;;4997064;28;20364;-58
2023/11/06 11:08:01;;;;;;;12.02;2.55;;;10.90;99.90;;;;;;4997733;28;20459;-59
2023/11/06 11:10:31;;;;;;;8.90;2.45;;;10.90;99.90;;;;;;4998012;28;20042;-58
2023/11/06 11:13:00;;;;;;;9.40;2.38;;;11.00;99.90;;;;;;4996862;28;20085;-58
2023/11/06 11:15:27;;;;;;;6.40;1.63;;;11.00;99.90;;;;;;4996536;28;20042;-60
2023/11/06 11:17:54;;;;;;;12.20;1.92;;;11.10;99.90;;;;;;4996714;28;20040;-59
2023/11/06 11:20:21;;;;;;;9.07;1.85;;;11.10;99.90;;;;;;4996628;28;20039;-60
2023/11/06 11:22:49;;;;;;;8.45;1.80;;;11.20;99.90;;;;;;4996188;28;20149;-59
2023/11/06 11:25:17;;;;;;;10.63;1.70;;;11.30;99.90;;;;;;5027945;28;20456;-59
2023/11/06 11:27:44;;;;;;;8.38;1.85;;;11.30;99.90;;;;;;4996181;28;20125;-59
2023/11/06 11:30:12;;;;;;;9.13;1.75;;;11.40;99.90;;;;;;4996287;28;20046;-60
2023/11/06 11:32:47;;;;;;;11.15;1.92;;;11.40;99.90;;;;;;4995593;28;20467;-59
2023/11/06 11:35:19;;;;;;;8.50;1.67;;;11.50;99.90;;;;;;4989749;28;20038;-59
2023/11/06 11:37:46;;;;;;;10.95;2.38;;;11.50;99.90;;;;;;4995084;28;20035;-58
2023/11/06 11:40:13;;;;;;;7.57;1.70;;;11.50;99.90;;;;;;5001435;28;20046;-59
2023/11/06 11:42:40;;;;;;;7.45;1.60;;;11.60;99.90;;;;;;5015504;28;20034;-60
2023/11/06 11:45:07;;;;;;;9.38;1.70;;;11.60;99.90;;;;;;5015033;28;20044;-59
2023/11/06 11:47:34;;;;;;;6.43;2.00;;;11.60;99.90;;;;;;5009236;28;20045;-60
2023/11/06 11:50:01;;;;;;;9.32;1.90;;;11.60;99.90;;;;;;5008956;28;20042;-59
2023/11/06 11:52:28;;;;;;;7.97;1.83;;;11.60;99.90;;;;;;5014623;28;20046;-59
2023/11/06 11:54:55;;;;;;;6.10;1.27;;;11.50;99.90;;;;;;5015263;28;20081;-59
2023/11/06 11:57:22;;;;;;;6.97;1.65;;;11.50;99.90;;;;;;5014914;28;20065;-59
2023/11/06 11:59:50;;;;;;;6.43;1.70;;;11.50;99.90;;;;;;5015275;28;20052;-60
2023/11/06 12:02:17;;;;;;;7.32;1.75;;;11.60;99.90;;;;;;5014321;28;20375;-59
2023/11/06 12:04:44;;;;;;;6.95;1.52;;;11.60;99.90;;;;;;5015133;28;20475;-59
2023/11/06 12:07:11;;;;;;;7.40;1.25;;;11.60;99.90;;;;;;5014449;28;20046;-59
2023/11/06 12:09:37;;;;;;;8.13;1.60;;;11.70;99.90;;;;;;4997439;28;20041;-59
2023/11/06 12:12:04;;;;;;;5.85;1.50;;;11.70;99.90;;;;;;5014867;28;20073;-59
2023/11/06 12:14:37;;;;;;;6.18;1.55;;;11.80;99.90;;;;;;5014118;28;20066;-58
2023/11/06 12:17:05;;;;;;;7.25;1.42;;;11.80;99.90;;;;;;5014965;28;20042;-59
2023/11/06 12:19:40;;;;;;;7.15;1.38;;;11.80;99.90;;;;;;5014572;28;20443;-60
2023/11/06 12:22:06;;;;;;;6.38;1.30;;;11.80;99.90;;;;;;5014952;28;20044;-60
2023/11/06 12:24:33;;;;;;;5.30;1.45;;;11.80;99.90;;;;;;4978293;28;20038;-60
2023/11/06 12:27:00;;;;;;;5.68;1.50;;;11.80;99.90;;;;;;5014112;28;20046;-59
2023/11/06 12:29:27;;;;;;;8.88;1.50;;;11.80;99.90;;;;;;5014515;28;20037;-58
2023/11/06 12:31:54;;;;;;;9.50;1.38;;;11.80;99.90;;;;;;5014191;28;20049;-58
2023/11/06 12:34:21;;;;;;;6.70;1.90;;;11.80;99.90;;;;;;5014292;28;20042;-58
2023/11/06 12:36:48;;;;;;;7.38;1.40;;;11.80;99.90;;;;;;5014238;28;20069;-57
2023/11/06 12:39:15;;;;;;;7.47;1.63;;;11.90;99.90;;;;;;5013782;28;20037;-57
2023/11/06 12:41:43;;;;;;;7.80;1.95;;;11.90;99.90;;;;;;4996385;28;20096;-58
2023/11/06 12:44:11;;;;;;;7.95;1.58;;;12.00;99.90;;;;;;5014413;28;20064;-64
2023/11/06 12:46:38;;;;;;;7.93;1.88;;;12.00;99.90;;;;;;5013891;28;20260;-64